sensor_id;sensor_type;location;lat;lon;timestamp;P1;durP1;ratioP1;P2;durP2;ratioP2
21254;SDS011;10785;50.674;17.954;2023-05-16T00:02:30;1.17;;;1.13;;
21254;SDS011;10785;50.674;17.954;2023-05-16T00:04:59;1.95;;;1.85;;
21254;SDS011;10785;50.674;17.954;2023-05-16T00:07:29;1.52;;;1.38;;
21254;SDS011;10785;50.674;17.954;2023-05-16T00:10:01;4.82;;;2.60;;
21254;SDS011;10785;50.674;17.954;2023-05-16T00:15:55;2.17;;;2.08;;
21254;SDS011;10785;50.674;17.954;2023-05-16T00:18:25;1.92;;;1.83;;
21254;SDS011;10785;50.674;17.954;2023-05-16T00:20:54;2.10;;;2.00;;
21254;SDS011;10785;50.674;17.954;2023-05-16T00:23:23;12.85;;;1.90;;
21254;SDS011;10785;50.674;17.954;2023-05-16T00:25:53;2.03;;;1.80;;
21254;SDS011;10785;50.674;17.954;2023-05-16T00:28:21;1.45;;;1.40;;
21254;SDS011;10785;50.674;17.954;2023-05-16T00:30:50;3.42;;;2.58;;
21254;SDS011;10785;50.674;17.954;2023-05-16T00:33:19;2.33;;;2.15;;
21254;SDS011;10785;50.674;17.954;2023-05-16T00:35:47;3.47;;;2.85;;
21254;SDS011;10785;50.674;17.954;2023-05-16T00:38:17;2.25;;;1.85;;
21254;SDS011;10785;50.674;17.954;2023-05-16T01:42:13;6.75;;;5.15;;
21254;SDS011;10785;50.674;17.954;2023-05-16T01:44:43;2.55;;;2.35;;
21254;SDS011;10785;50.674;17.954;2023-05-16T01:47:18;9.82;;;4.10;;
21254;SDS011;10785;50.674;17.954;2023-05-16T01:49:49;2.28;;;2.17;;
21254;SDS011;10785;50.674;17.954;2023-05-16T01:52:25;2.70;;;2.50;;
21254;SDS011;10785;50.674;17.954;2023-05-16T01:54:59;3.65;;;2.50;;
21254;SDS011;10785;50.674;17.954;2023-05-16T01:57:32;4.05;;;3.75;;
21254;SDS011;10785;50.674;17.954;2023-05-16T02:00:02;2.75;;;2.55;;
21254;SDS011;10785;50.674;17.954;2023-05-16T02:02:40;3.13;;;2.28;;
21254;SDS011;10785;50.674;17.954;2023-05-16T02:05:08;4.35;;;3.85;;
21254;SDS011;10785;50.674;17.954;2023-05-16T02:07:37;3.80;;;3.58;;
21254;SDS011;10785;50.674;17.954;2023-05-16T02:10:07;2.78;;;2.58;;
21254;SDS011;10785;50.674;17.954;2023-05-16T02:12:38;2.03;;;1.92;;
21254;SDS011;10785;50.674;17.954;2023-05-16T02:15:07;3.72;;;3.05;;
21254;SDS011;10785;50.674;17.954;2023-05-16T02:17:37;2.88;;;2.67;;
21254;SDS011;10785;50.674;17.954;2023-05-16T02:20:07;17.23;;;2.72;;
21254;SDS011;10785;50.674;17.954;2023-05-16T02:22:37;3.47;;;3.05;;
21254;SDS011;10785;50.674;17.954;2023-05-16T02:25:06;2.10;;;1.90;;
21254;SDS011;10785;50.674;17.954;2023-05-16T02:27:35;2.60;;;2.40;;
21254;SDS011;10785;50.674;17.954;2023-05-16T02:30:06;2.35;;;2.15;;
21254;SDS011;10785;50.674;17.954;2023-05-16T02:32:35;3.47;;;3.22;;
21254;SDS011;10785;50.674;17.954;2023-05-16T02:35:04;16.92;;;4.28;;
21254;SDS011;10785;50.674;17.954;2023-05-16T02:37:34;2.90;;;2.55;;
21254;SDS011;10785;50.674;17.954;2023-05-16T02:40:02;3.70;;;2.35;;
21254;SDS011;10785;50.674;17.954;2023-05-16T02:42:37;2.15;;;2.00;;
21254;SDS011;10785;50.674;17.954;2023-05-16T02:45:06;2.67;;;2.47;;
21254;SDS011;10785;50.674;17.954;2023-05-16T02:47:35;3.80;;;3.50;;
21254;SDS011;10785;50.674;17.954;2023-05-16T03:48:37;7.82;;;4.43;;
21254;SDS011;10785;50.674;17.954;2023-05-16T03:51:05;3.67;;;1.80;;
21254;SDS011;10785;50.674;17.954;2023-05-16T03:53:34;2.55;;;2.03;;
21254;SDS011;10785;50.674;17.954;2023-05-16T03:56:04;3.03;;;2.25;;
21254;SDS011;10785;50.674;17.954;2023-05-16T04:01:27;1.67;;;1.58;;
21254;SDS011;10785;50.674;17.954;2023-05-16T04:03:57;2.75;;;2.33;;
21254;SDS011;10785;50.674;17.954;2023-05-16T04:06:25;1.92;;;1.67;;
21254;SDS011;10785;50.674;17.954;2023-05-16T04:08:54;34.08;;;3.80;;
21254;SDS011;10785;50.674;17.954;2023-05-16T04:11:23;3.40;;;3.10;;
21254;SDS011;10785;50.674;17.954;2023-05-16T04:13:52;2.45;;;2.25;;
21254;SDS011;10785;50.674;17.954;2023-05-16T04:16:20;3.90;;;1.92;;
21254;SDS011;10785;50.674;17.954;2023-05-16T04:18:49;2.53;;;2.33;;
21254;SDS011;10785;50.674;17.954;2023-05-16T04:21:19;2.80;;;1.77;;
21254;SDS011;10785;50.674;17.954;2023-05-16T04:23:48;1.98;;;1.30;;
21254;SDS011;10785;50.674;17.954;2023-05-16T04:26:16;5.45;;;2.33;;
21254;SDS011;10785;50.674;17.954;2023-05-16T04:28:47;2.60;;;1.77;;
21254;SDS011;10785;50.674;17.954;2023-05-16T04:31:16;2.20;;;1.50;;
21254;SDS011;10785;50.674;17.954;2023-05-16T04:33:44;4.95;;;1.20;;
21254;SDS011;10785;50.674;17.954;2023-05-16T04:36:13;2.92;;;1.75;;
21254;SDS011;10785;50.674;17.954;2023-05-16T04:38:43;2.40;;;1.80;;
21254;SDS011;10785;50.674;17.954;2023-05-16T04:41:12;4.63;;;1.83;;
21254;SDS011;10785;50.674;17.954;2023-05-16T04:59:47;1.50;;;1.35;;
21254;SDS011;10785;50.674;17.954;2023-05-16T05:02:16;2.17;;;1.58;;
21254;SDS011;10785;50.674;17.954;2023-05-16T05:04:44;3.75;;;1.85;;
21254;SDS011;10785;50.674;17.954;2023-05-16T05:07:13;2.58;;;1.58;;
21254;SDS011;10785;50.674;17.954;2023-05-16T05:09:42;1.98;;;1.48;;
21254;SDS011;10785;50.674;17.954;2023-05-16T05:12:10;4.00;;;1.55;;
21254;SDS011;10785;50.674;17.954;2023-05-16T05:14:39;2.85;;;1.88;;
21254;SDS011;10785;50.674;17.954;2023-05-16T05:17:09;7.28;;;2.13;;
21254;SDS011;10785;50.674;17.954;2023-05-16T05:19:38;1.70;;;1.50;;
21254;SDS011;10785;50.674;17.954;2023-05-16T05:22:07;1.88;;;1.40;;
21254;SDS011;10785;50.674;17.954;2023-05-16T05:24:35;2.33;;;1.52;;
21254;SDS011;10785;50.674;17.954;2023-05-16T05:27:04;2.83;;;1.98;;
21254;SDS011;10785;50.674;17.954;2023-05-16T05:29:33;3.50;;;1.65;;
21254;SDS011;10785;50.674;17.954;2023-05-16T05:32:02;2.17;;;1.23;;
21254;SDS011;10785;50.674;17.954;2023-05-16T05:34:32;2.80;;;2.20;;
21254;SDS011;10785;50.674;17.954;2023-05-16T05:37:01;2.08;;;1.45;;
21254;SDS011;10785;50.674;17.954;2023-05-16T05:39:30;3.50;;;2.35;;
21254;SDS011;10785;50.674;17.954;2023-05-16T05:41:58;1.95;;;1.30;;
21254;SDS011;10785;50.674;17.954;2023-05-16T05:44:29;1.73;;;1.23;;
21254;SDS011;10785;50.674;17.954;2023-05-16T05:46:59;2.85;;;1.63;;
21254;SDS011;10785;50.674;17.954;2023-05-16T05:49:27;1.88;;;1.05;;
21254;SDS011;10785;50.674;17.954;2023-05-16T05:51:58;2.25;;;1.50;;
21254;SDS011;10785;50.674;17.954;2023-05-16T05:54:27;6.43;;;1.50;;
21254;SDS011;10785;50.674;17.954;2023-05-16T05:56:56;3.13;;;2.00;;
21254;SDS011;10785;50.674;17.954;2023-05-16T05:59:25;4.75;;;2.00;;
21254;SDS011;10785;50.674;17.954;2023-05-16T06:01:54;3.60;;;2.13;;
21254;SDS011;10785;50.674;17.954;2023-05-16T06:04:23;1.90;;;1.50;;
21254;SDS011;10785;50.674;17.954;2023-05-16T06:06:52;1.15;;;1.08;;
21254;SDS011;10785;50.674;17.954;2023-05-16T06:09:22;2.75;;;1.33;;
21254;SDS011;10785;50.674;17.954;2023-05-16T06:11:50;3.05;;;1.48;;
21254;SDS011;10785;50.674;17.954;2023-05-16T06:14:19;5.70;;;1.63;;
21254;SDS011;10785;50.674;17.954;2023-05-16T06:16:48;7.28;;;1.50;;
21254;SDS011;10785;50.674;17.954;2023-05-16T06:19:16;1.52;;;1.00;;
21254;SDS011;10785;50.674;17.954;2023-05-16T06:21:45;1.95;;;1.48;;
21254;SDS011;10785;50.674;17.954;2023-05-16T06:24:14;1.83;;;1.50;;
21254;SDS011;10785;50.674;17.954;2023-05-16T06:26:44;1.45;;;1.35;;
21254;SDS011;10785;50.674;17.954;2023-05-16T06:29:15;1.63;;;1.25;;
21254;SDS011;10785;50.674;17.954;2023-05-16T06:31:44;1.52;;;0.82;;
21254;SDS011;10785;50.674;17.954;2023-05-16T06:34:13;2.63;;;1.30;;
21254;SDS011;10785;50.674;17.954;2023-05-16T06:36:42;9.35;;;0.93;;
21254;SDS011;10785;50.674;17.954;2023-05-16T06:39:11;1.63;;;1.15;;
21254;SDS011;10785;50.674;17.954;2023-05-16T06:41:39;3.58;;;2.03;;
21254;SDS011;10785;50.674;17.954;2023-05-16T06:44:15;13.93;;;2.60;;
21254;SDS011;10785;50.674;17.954;2023-05-16T06:46:44;2.75;;;1.02;;
21254;SDS011;10785;50.674;17.954;2023-05-16T06:49:13;1.50;;;1.20;;
21254;SDS011;10785;50.674;17.954;2023-05-16T06:51:41;2.25;;;1.00;;
21254;SDS011;10785;50.674;17.954;2023-05-16T06:54:10;3.70;;;1.65;;
21254;SDS011;10785;50.674;17.954;2023-05-16T06:56:39;3.70;;;2.20;;
21254;SDS011;10785;50.674;17.954;2023-05-16T06:59:07;1.85;;;1.35;;
21254;SDS011;10785;50.674;17.954;2023-05-16T07:01:37;1.63;;;1.52;;
21254;SDS011;10785;50.674;17.954;2023-05-16T07:04:07;3.45;;;1.75;;
21254;SDS011;10785;50.674;17.954;2023-05-16T07:06:35;1.80;;;1.40;;
21254;SDS011;10785;50.674;17.954;2023-05-16T07:09:04;1.48;;;1.02;;
21254;SDS011;10785;50.674;17.954;2023-05-16T07:11:33;3.03;;;2.13;;
21254;SDS011;10785;50.674;17.954;2023-05-16T07:14:01;5.68;;;1.58;;
21254;SDS011;10785;50.674;17.954;2023-05-16T07:16:30;2.92;;;2.08;;
21254;SDS011;10785;50.674;17.954;2023-05-16T07:19:00;2.08;;;1.15;;
21254;SDS011;10785;50.674;17.954;2023-05-16T07:21:29;1.55;;;1.45;;
21254;SDS011;10785;50.674;17.954;2023-05-16T07:23:58;2.58;;;1.35;;
21254;SDS011;10785;50.674;17.954;2023-05-16T07:26:27;2.63;;;1.90;;
21254;SDS011;10785;50.674;17.954;2023-05-16T07:28:56;7.75;;;1.98;;
21254;SDS011;10785;50.674;17.954;2023-05-16T07:31:25;1.65;;;1.35;;
21254;SDS011;10785;50.674;17.954;2023-05-16T07:33:53;2.50;;;1.67;;
21254;SDS011;10785;50.674;17.954;2023-05-16T07:36:24;2.53;;;1.75;;
21254;SDS011;10785;50.674;17.954;2023-05-16T07:38:52;3.20;;;2.33;;
21254;SDS011;10785;50.674;17.954;2023-05-16T07:41:21;2.58;;;1.70;;
21254;SDS011;10785;50.674;17.954;2023-05-16T07:43:50;3.75;;;1.92;;
21254;SDS011;10785;50.674;17.954;2023-05-16T07:46:18;2.20;;;1.70;;
21254;SDS011;10785;50.674;17.954;2023-05-16T07:48:47;2.60;;;2.22;;
21254;SDS011;10785;50.674;17.954;2023-05-16T07:51:16;9.20;;;2.30;;
21254;SDS011;10785;50.674;17.954;2023-05-16T07:53:46;2.30;;;2.08;;
21254;SDS011;10785;50.674;17.954;2023-05-16T07:56:16;4.13;;;2.33;;
21254;SDS011;10785;50.674;17.954;2023-05-16T07:58:44;3.42;;;1.75;;
21254;SDS011;10785;50.674;17.954;2023-05-16T08:01:14;2.25;;;1.45;;
21254;SDS011;10785;50.674;17.954;2023-05-16T08:03:43;4.68;;;2.33;;
21254;SDS011;10785;50.674;17.954;2023-05-16T08:06:12;2.13;;;1.83;;
21254;SDS011;10785;50.674;17.954;2023-05-16T08:08:40;3.03;;;2.72;;
21254;SDS011;10785;50.674;17.954;2023-05-16T08:11:10;3.13;;;2.33;;
21254;SDS011;10785;50.674;17.954;2023-05-16T08:13:40;2.88;;;1.98;;
21254;SDS011;10785;50.674;17.954;2023-05-16T08:16:08;3.05;;;1.85;;
21254;SDS011;10785;50.674;17.954;2023-05-16T08:18:37;2.47;;;1.98;;
21254;SDS011;10785;50.674;17.954;2023-05-16T08:21:06;1.67;;;1.48;;
21254;SDS011;10785;50.674;17.954;2023-05-16T08:23:36;3.13;;;2.58;;
21254;SDS011;10785;50.674;17.954;2023-05-16T08:26:05;4.20;;;2.42;;
21254;SDS011;10785;50.674;17.954;2023-05-16T08:28:35;3.58;;;2.58;;
21254;SDS011;10785;50.674;17.954;2023-05-16T08:31:04;3.00;;;2.10;;
21254;SDS011;10785;50.674;17.954;2023-05-16T08:33:33;2.10;;;1.90;;
21254;SDS011;10785;50.674;17.954;2023-05-16T08:36:01;2.78;;;2.10;;
21254;SDS011;10785;50.674;17.954;2023-05-16T08:38:30;3.80;;;2.17;;
21254;SDS011;10785;50.674;17.954;2023-05-16T08:40:59;2.42;;;2.13;;
21254;SDS011;10785;50.674;17.954;2023-05-16T08:43:27;2.22;;;1.77;;
21254;SDS011;10785;50.674;17.954;2023-05-16T08:45:58;3.63;;;2.38;;
21254;SDS011;10785;50.674;17.954;2023-05-16T08:48:26;4.95;;;2.78;;
21254;SDS011;10785;50.674;17.954;2023-05-16T08:50:55;3.95;;;2.25;;
21254;SDS011;10785;50.674;17.954;2023-05-16T08:53:25;1.48;;;1.08;;
21254;SDS011;10785;50.674;17.954;2023-05-16T08:55:58;2.28;;;2.03;;
21254;SDS011;10785;50.674;17.954;2023-05-16T08:58:28;3.85;;;2.22;;
21254;SDS011;10785;50.674;17.954;2023-05-16T09:00:58;4.85;;;2.90;;
21254;SDS011;10785;50.674;17.954;2023-05-16T09:03:30;2.47;;;2.22;;
21254;SDS011;10785;50.674;17.954;2023-05-16T09:05:59;2.17;;;1.80;;
21254;SDS011;10785;50.674;17.954;2023-05-16T09:08:27;4.72;;;2.63;;
21254;SDS011;10785;50.674;17.954;2023-05-16T09:10:56;2.92;;;1.77;;
21254;SDS011;10785;50.674;17.954;2023-05-16T09:13:25;6.03;;;2.35;;
21254;SDS011;10785;50.674;17.954;2023-05-16T09:16:11;5.20;;;2.40;;
21254;SDS011;10785;50.674;17.954;2023-05-16T09:18:41;6.25;;;2.03;;
21254;SDS011;10785;50.674;17.954;2023-05-16T09:21:13;6.03;;;2.92;;
21254;SDS011;10785;50.674;17.954;2023-05-16T09:23:43;8.65;;;1.83;;
21254;SDS011;10785;50.674;17.954;2023-05-16T09:26:15;7.20;;;2.42;;
21254;SDS011;10785;50.674;17.954;2023-05-16T09:28:45;3.05;;;1.75;;
21254;SDS011;10785;50.674;17.954;2023-05-16T09:31:21;3.63;;;2.70;;
21254;SDS011;10785;50.674;17.954;2023-05-16T09:33:52;2.50;;;1.85;;
21254;SDS011;10785;50.674;17.954;2023-05-16T09:36:22;4.97;;;2.35;;
21254;SDS011;10785;50.674;17.954;2023-05-16T09:38:52;2.42;;;1.90;;
21254;SDS011;10785;50.674;17.954;2023-05-16T09:41:21;2.20;;;1.77;;
21254;SDS011;10785;50.674;17.954;2023-05-16T09:43:49;2.28;;;2.08;;
21254;SDS011;10785;50.674;17.954;2023-05-16T09:46:18;3.20;;;2.00;;
21254;SDS011;10785;50.674;17.954;2023-05-16T09:48:54;1.90;;;1.33;;
21254;SDS011;10785;50.674;17.954;2023-05-16T09:51:23;1.25;;;1.15;;
21254;SDS011;10785;50.674;17.954;2023-05-16T09:53:51;3.42;;;1.75;;
21254;SDS011;10785;50.674;17.954;2023-05-16T09:56:21;4.45;;;2.10;;
21254;SDS011;10785;50.674;17.954;2023-05-16T09:58:50;2.03;;;1.67;;
21254;SDS011;10785;50.674;17.954;2023-05-16T10:01:19;1.85;;;1.50;;
21254;SDS011;10785;50.674;17.954;2023-05-16T10:03:49;5.43;;;2.35;;
21254;SDS011;10785;50.674;17.954;2023-05-16T10:06:18;1.80;;;1.08;;
21254;SDS011;10785;50.674;17.954;2023-05-16T10:08:48;1.77;;;1.67;;
21254;SDS011;10785;50.674;17.954;2023-05-16T10:11:18;3.25;;;2.33;;
21254;SDS011;10785;50.674;17.954;2023-05-16T10:13:47;2.80;;;1.92;;
21254;SDS011;10785;50.674;17.954;2023-05-16T10:16:19;0.88;;;0.85;;
21254;SDS011;10785;50.674;17.954;2023-05-16T10:18:51;7.45;;;2.28;;
21254;SDS011;10785;50.674;17.954;2023-05-16T10:21:22;3.33;;;2.83;;
21254;SDS011;10785;50.674;17.954;2023-05-16T10:23:52;3.47;;;1.92;;
21254;SDS011;10785;50.674;17.954;2023-05-16T10:26:25;3.55;;;1.70;;
21254;SDS011;10785;50.674;17.954;2023-05-16T10:28:54;2.35;;;1.85;;
21254;SDS011;10785;50.674;17.954;2023-05-16T10:31:23;3.15;;;1.75;;
21254;SDS011;10785;50.674;17.954;2023-05-16T10:33:54;3.25;;;2.70;;
21254;SDS011;10785;50.674;17.954;2023-05-16T10:36:23;2.03;;;1.77;;
21254;SDS011;10785;50.674;17.954;2023-05-16T10:38:52;1.65;;;1.55;;
21254;SDS011;10785;50.674;17.954;2023-05-16T10:41:22;2.47;;;2.28;;
21254;SDS011;10785;50.674;17.954;2023-05-16T10:43:54;6.68;;;2.47;;
21254;SDS011;10785;50.674;17.954;2023-05-16T11:31:49;1.17;;;1.10;;
21254;SDS011;10785;50.674;17.954;2023-05-16T11:34:20;1.20;;;1.05;;
21254;SDS011;10785;50.674;17.954;2023-05-16T11:36:49;1.35;;;1.25;;
21254;SDS011;10785;50.674;17.954;2023-05-16T11:39:18;1.67;;;1.38;;
21254;SDS011;10785;50.674;17.954;2023-05-16T11:41:47;1.83;;;1.67;;
21254;SDS011;10785;50.674;17.954;2023-05-16T11:44:15;1.98;;;1.48;;
21254;SDS011;10785;50.674;17.954;2023-05-16T11:46:44;2.17;;;1.40;;
21254;SDS011;10785;50.674;17.954;2023-05-16T11:49:14;3.75;;;1.30;;
21254;SDS011;10785;50.674;17.954;2023-05-16T11:51:44;0.73;;;0.73;;
21254;SDS011;10785;50.674;17.954;2023-05-16T11:54:13;2.38;;;1.38;;
21254;SDS011;10785;50.674;17.954;2023-05-16T11:56:42;1.83;;;1.20;;
21254;SDS011;10785;50.674;17.954;2023-05-16T11:59:11;2.47;;;1.58;;
21254;SDS011;10785;50.674;17.954;2023-05-16T12:01:40;1.05;;;0.85;;
21254;SDS011;10785;50.674;17.954;2023-05-16T12:04:09;1.08;;;0.98;;
21254;SDS011;10785;50.674;17.954;2023-05-16T12:06:40;1.80;;;1.50;;
21254;SDS011;10785;50.674;17.954;2023-05-16T12:09:10;1.77;;;1.02;;
21254;SDS011;10785;50.674;17.954;2023-05-16T12:11:43;2.10;;;1.42;;
21254;SDS011;10785;50.674;17.954;2023-05-16T12:14:12;1.48;;;1.27;;
21254;SDS011;10785;50.674;17.954;2023-05-16T12:16:48;1.77;;;1.05;;
21254;SDS011;10785;50.674;17.954;2023-05-16T12:19:18;3.78;;;2.03;;
21254;SDS011;10785;50.674;17.954;2023-05-16T12:21:52;6.65;;;1.02;;
21254;SDS011;10785;50.674;17.954;2023-05-16T12:24:21;2.13;;;1.35;;
21254;SDS011;10785;50.674;17.954;2023-05-16T12:26:57;0.82;;;0.65;;
21254;SDS011;10785;50.674;17.954;2023-05-16T12:29:26;1.35;;;1.13;;
21254;SDS011;10785;50.674;17.954;2023-05-16T12:31:54;1.10;;;1.00;;
21254;SDS011;10785;50.674;17.954;2023-05-16T12:34:27;5.28;;;0.95;;
21254;SDS011;10785;50.674;17.954;2023-05-16T12:36:57;3.72;;;1.35;;
21254;SDS011;10785;50.674;17.954;2023-05-16T12:39:27;2.10;;;1.63;;
21254;SDS011;10785;50.674;17.954;2023-05-16T12:42:04;1.70;;;0.90;;
21254;SDS011;10785;50.674;17.954;2023-05-16T12:44:35;1.70;;;1.60;;
21254;SDS011;10785;50.674;17.954;2023-05-16T12:47:05;2.53;;;1.13;;
21254;SDS011;10785;50.674;17.954;2023-05-16T12:49:43;4.70;;;1.60;;
21254;SDS011;10785;50.674;17.954;2023-05-16T12:52:17;1.65;;;0.88;;
21254;SDS011;10785;50.674;17.954;2023-05-16T12:54:47;1.63;;;1.23;;
21254;SDS011;10785;50.674;17.954;2023-05-16T12:57:16;1.75;;;1.10;;
21254;SDS011;10785;50.674;17.954;2023-05-16T12:59:45;2.25;;;1.02;;
21254;SDS011;10785;50.674;17.954;2023-05-16T13:02:14;1.33;;;1.00;;
21254;SDS011;10785;50.674;17.954;2023-05-16T13:04:44;1.73;;;0.85;;
21254;SDS011;10785;50.674;17.954;2023-05-16T13:07:13;2.22;;;1.88;;
21254;SDS011;10785;50.674;17.954;2023-05-16T13:09:44;1.20;;;0.90;;
21254;SDS011;10785;50.674;17.954;2023-05-16T13:12:13;2.85;;;1.70;;
21254;SDS011;10785;50.674;17.954;2023-05-16T13:30:47;1.55;;;1.00;;
21254;SDS011;10785;50.674;17.954;2023-05-16T13:33:17;1.30;;;0.65;;
21254;SDS011;10785;50.674;17.954;2023-05-16T13:35:45;0.70;;;0.70;;
21254;SDS011;10785;50.674;17.954;2023-05-16T13:38:14;2.22;;;0.73;;
21254;SDS011;10785;50.674;17.954;2023-05-16T13:40:43;2.88;;;1.50;;
21254;SDS011;10785;50.674;17.954;2023-05-16T13:43:12;0.60;;;0.60;;
21254;SDS011;10785;50.674;17.954;2023-05-16T13:58:46;2.10;;;1.30;;
21254;SDS011;10785;50.674;17.954;2023-05-16T14:01:31;2.22;;;1.75;;
21254;SDS011;10785;50.674;17.954;2023-05-16T14:04:00;1.02;;;0.80;;
21254;SDS011;10785;50.674;17.954;2023-05-16T14:06:29;2.42;;;1.80;;
21254;SDS011;10785;50.674;17.954;2023-05-16T14:08:59;1.17;;;1.13;;
21254;SDS011;10785;50.674;17.954;2023-05-16T14:11:27;1.17;;;1.08;;
21254;SDS011;10785;50.674;17.954;2023-05-16T14:13:57;2.03;;;1.42;;
21254;SDS011;10785;50.674;17.954;2023-05-16T14:16:26;1.27;;;0.98;;
21254;SDS011;10785;50.674;17.954;2023-05-16T14:18:56;1.02;;;0.95;;
21254;SDS011;10785;50.674;17.954;2023-05-16T14:21:25;2.17;;;1.98;;
21254;SDS011;10785;50.674;17.954;2023-05-16T14:23:54;3.33;;;1.50;;
21254;SDS011;10785;50.674;17.954;2023-05-16T14:26:23;1.75;;;1.60;;
21254;SDS011;10785;50.674;17.954;2023-05-16T14:28:52;1.80;;;1.55;;
21254;SDS011;10785;50.674;17.954;2023-05-16T14:31:23;1.75;;;0.82;;
21254;SDS011;10785;50.674;17.954;2023-05-16T14:33:52;0.93;;;0.93;;
21254;SDS011;10785;50.674;17.954;2023-05-16T14:36:20;2.03;;;1.75;;
21254;SDS011;10785;50.674;17.954;2023-05-16T14:38:49;1.40;;;1.30;;
21254;SDS011;10785;50.674;17.954;2023-05-16T14:41:18;1.10;;;0.75;;
21254;SDS011;10785;50.674;17.954;2023-05-16T14:43:46;1.75;;;1.35;;
21254;SDS011;10785;50.674;17.954;2023-05-16T14:46:15;1.40;;;1.30;;
21254;SDS011;10785;50.674;17.954;2023-05-16T14:48:45;1.38;;;0.93;;
21254;SDS011;10785;50.674;17.954;2023-05-16T14:51:14;2.35;;;1.50;;
21254;SDS011;10785;50.674;17.954;2023-05-16T14:53:42;1.38;;;1.27;;
21254;SDS011;10785;50.674;17.954;2023-05-16T14:56:12;2.90;;;1.42;;
21254;SDS011;10785;50.674;17.954;2023-05-16T14:58:41;1.23;;;1.13;;
21254;SDS011;10785;50.674;17.954;2023-05-16T15:01:10;0.80;;;0.80;;
21254;SDS011;10785;50.674;17.954;2023-05-16T15:03:38;15.85;;;3.53;;
21254;SDS011;10785;50.674;17.954;2023-05-16T15:06:11;1.90;;;1.77;;
21254;SDS011;10785;50.674;17.954;2023-05-16T15:08:40;2.05;;;1.20;;
21254;SDS011;10785;50.674;17.954;2023-05-16T15:11:09;6.43;;;3.30;;
21254;SDS011;10785;50.674;17.954;2023-05-16T15:13:38;3.20;;;2.65;;
21254;SDS011;10785;50.674;17.954;2023-05-16T15:16:06;4.82;;;3.13;;
21254;SDS011;10785;50.674;17.954;2023-05-16T15:18:35;3.85;;;3.45;;
21254;SDS011;10785;50.674;17.954;2023-05-16T15:21:04;9.68;;;5.03;;
21254;SDS011;10785;50.674;17.954;2023-05-16T15:23:34;4.53;;;4.10;;
21254;SDS011;10785;50.674;17.954;2023-05-16T15:26:03;3.80;;;3.47;;
21254;SDS011;10785;50.674;17.954;2023-05-16T15:28:32;4.30;;;3.88;;
21254;SDS011;10785;50.674;17.954;2023-05-16T15:31:01;5.22;;;4.20;;
21254;SDS011;10785;50.674;17.954;2023-05-16T15:33:30;4.18;;;3.88;;
21254;SDS011;10785;50.674;17.954;2023-05-16T15:35:59;9.45;;;4.35;;
21254;SDS011;10785;50.674;17.954;2023-05-16T15:38:28;5.80;;;5.18;;
21254;SDS011;10785;50.674;17.954;2023-05-16T15:40:58;5.30;;;2.80;;
21254;SDS011;10785;50.674;17.954;2023-05-16T15:43:48;4.15;;;3.75;;
21254;SDS011;10785;50.674;17.954;2023-05-16T15:46:16;8.65;;;5.97;;
21254;SDS011;10785;50.674;17.954;2023-05-16T15:48:45;9.00;;;5.30;;
21254;SDS011;10785;50.674;17.954;2023-05-16T15:51:14;5.72;;;5.13;;
21254;SDS011;10785;50.674;17.954;2023-05-16T15:53:43;3.35;;;2.97;;
21254;SDS011;10785;50.674;17.954;2023-05-16T15:56:13;6.88;;;4.40;;
21254;SDS011;10785;50.674;17.954;2023-05-16T15:58:41;10.00;;;4.88;;
21254;SDS011;10785;50.674;17.954;2023-05-16T16:01:12;10.38;;;7.38;;
21254;SDS011;10785;50.674;17.954;2023-05-16T16:03:42;10.00;;;5.55;;
21254;SDS011;10785;50.674;17.954;2023-05-16T16:06:11;7.72;;;4.93;;
21254;SDS011;10785;50.674;17.954;2023-05-16T16:08:39;6.55;;;5.13;;
21254;SDS011;10785;50.674;17.954;2023-05-16T16:11:08;6.22;;;5.60;;
21254;SDS011;10785;50.674;17.954;2023-05-16T16:13:38;6.78;;;6.10;;
21254;SDS011;10785;50.674;17.954;2023-05-16T16:16:07;7.57;;;5.13;;
21254;SDS011;10785;50.674;17.954;2023-05-16T16:18:35;5.35;;;3.97;;
21254;SDS011;10785;50.674;17.954;2023-05-16T16:21:04;9.77;;;4.57;;
21254;SDS011;10785;50.674;17.954;2023-05-16T16:23:33;8.30;;;5.70;;
21254;SDS011;10785;50.674;17.954;2023-05-16T16:26:02;17.85;;;6.10;;
21254;SDS011;10785;50.674;17.954;2023-05-16T16:28:32;8.55;;;7.25;;
21254;SDS011;10785;50.674;17.954;2023-05-16T16:31:02;8.00;;;4.20;;
21254;SDS011;10785;50.674;17.954;2023-05-16T16:33:31;5.22;;;3.95;;
21254;SDS011;10785;50.674;17.954;2023-05-16T16:36:00;7.30;;;4.57;;
21254;SDS011;10785;50.674;17.954;2023-05-16T16:38:29;10.35;;;5.88;;
21254;SDS011;10785;50.674;17.954;2023-05-16T16:40:57;5.93;;;5.07;;
21254;SDS011;10785;50.674;17.954;2023-05-16T16:43:26;10.27;;;6.80;;
21254;SDS011;10785;50.674;17.954;2023-05-16T16:45:55;6.55;;;4.03;;
21254;SDS011;10785;50.674;17.954;2023-05-16T16:48:25;7.13;;;6.00;;
21254;SDS011;10785;50.674;17.954;2023-05-16T16:50:53;4.85;;;4.38;;
21254;SDS011;10785;50.674;17.954;2023-05-16T16:53:22;7.90;;;5.63;;
21254;SDS011;10785;50.674;17.954;2023-05-16T16:55:52;7.10;;;5.72;;
21254;SDS011;10785;50.674;17.954;2023-05-16T16:58:20;3.72;;;3.30;;
21254;SDS011;10785;50.674;17.954;2023-05-16T17:00:49;15.05;;;7.65;;
21254;SDS011;10785;50.674;17.954;2023-05-16T17:03:18;5.47;;;4.97;;
21254;SDS011;10785;50.674;17.954;2023-05-16T17:05:49;10.60;;;6.00;;
21254;SDS011;10785;50.674;17.954;2023-05-16T17:08:19;6.70;;;6.07;;
21254;SDS011;10785;50.674;17.954;2023-05-16T17:10:48;9.05;;;5.95;;
21254;SDS011;10785;50.674;17.954;2023-05-16T17:13:16;9.45;;;6.43;;
21254;SDS011;10785;50.674;17.954;2023-05-16T17:15:45;4.90;;;4.50;;
21254;SDS011;10785;50.674;17.954;2023-05-16T17:18:14;8.65;;;3.33;;
21254;SDS011;10785;50.674;17.954;2023-05-16T17:20:43;6.90;;;6.30;;
21254;SDS011;10785;50.674;17.954;2023-05-16T17:23:13;7.78;;;5.78;;
21254;SDS011;10785;50.674;17.954;2023-05-16T17:25:41;20.17;;;6.32;;
21254;SDS011;10785;50.674;17.954;2023-05-16T17:28:11;6.47;;;5.90;;
21254;SDS011;10785;50.674;17.954;2023-05-16T17:30:39;5.95;;;5.30;;
21254;SDS011;10785;50.674;17.954;2023-05-16T17:33:08;7.70;;;5.32;;
21254;SDS011;10785;50.674;17.954;2023-05-16T17:35:37;12.57;;;7.22;;
21254;SDS011;10785;50.674;17.954;2023-05-16T17:38:06;9.13;;;7.32;;
21254;SDS011;10785;50.674;17.954;2023-05-16T17:40:37;11.57;;;3.60;;
21254;SDS011;10785;50.674;17.954;2023-05-16T17:43:06;6.95;;;6.18;;
21254;SDS011;10785;50.674;17.954;2023-05-16T17:45:34;11.55;;;6.93;;
21254;SDS011;10785;50.674;17.954;2023-05-16T17:48:04;6.95;;;6.38;;
21254;SDS011;10785;50.674;17.954;2023-05-16T17:50:33;9.40;;;6.78;;
21254;SDS011;10785;50.674;17.954;2023-05-16T17:53:03;7.20;;;6.57;;
21254;SDS011;10785;50.674;17.954;2023-05-16T17:55:33;9.63;;;8.13;;
21254;SDS011;10785;50.674;17.954;2023-05-16T17:58:05;16.10;;;6.53;;
21254;SDS011;10785;50.674;17.954;2023-05-16T18:00:35;12.43;;;5.82;;
21254;SDS011;10785;50.674;17.954;2023-05-16T18:03:04;5.90;;;5.30;;
21254;SDS011;10785;50.674;17.954;2023-05-16T18:05:33;6.22;;;5.63;;
21254;SDS011;10785;50.674;17.954;2023-05-16T18:08:02;11.07;;;7.07;;
21254;SDS011;10785;50.674;17.954;2023-05-16T18:10:34;8.80;;;5.70;;
21254;SDS011;10785;50.674;17.954;2023-05-16T18:13:20;9.60;;;6.38;;
21254;SDS011;10785;50.674;17.954;2023-05-16T18:15:49;11.32;;;7.38;;
21254;SDS011;10785;50.674;17.954;2023-05-16T18:18:18;6.10;;;5.35;;
21254;SDS011;10785;50.674;17.954;2023-05-16T18:20:47;5.32;;;4.75;;
21254;SDS011;10785;50.674;17.954;2023-05-16T18:23:18;9.80;;;6.57;;
21254;SDS011;10785;50.674;17.954;2023-05-16T18:25:47;6.35;;;4.40;;